Airfield :
LOGIN :

Register | Disclaimer

   EN    FR    IT 

 










Legend :    VFR   Marginal VFR   IFR   Intensive IFR   Very Intensive IFR
Visi :
Ceiling :
>= 8 km
>= 3000ft
5 to 8 km
1000 to 3000 ft
1500m to 5 km
500 to 1000 ft
800 to 1500m
200 to 500 ft
< 800m
< 200 ft
Symbols :   Thunderstorms  Fog  Heavy snow  Heavy precipitations  Wind > 20 kt
SIGMETs :     Misc.  Thunderstorms  Icing  Turbulence  Mountain Waves  Volcanic Ashes






- Airport Elevation : 121 ft
- IATA code : HUY


EGNJ - Humberside

CURRENT METAR :
  • 231220Z 18008KT 9000 BKN020 13/10 Q1013

EXPIRED METARs :
  • 231150Z 20010KT 9000 BKN020 13/10 Q1013
  • 231120Z 21012KT 9000 FEW025 12/10 Q1014
  • 231050Z 21009KT 9000 FEW028 12/10 Q1014
  • 231020Z 20010KT 9000 FEW030 11/10 Q1015
  • 230950Z 19008KT 9000 FEW030 11/09 Q1015

TAF TAF EGNJ
Valid from the 23 at 12:00 until the 23 at 21:00 UTC


231059Z 2312/2321 19007KT 9000 FEW035
BECMG 2312/2314 9999
TEMPO 2318/2321 5000 RA
BECMG 2320/2321 BKN012
ATIS : +44 1652 682 020



MET'MAP, your aeronautical weather chart ! - Copyright ORBIFLY December 2007 - Disclaimer

ORBIFLY MET'MAP TEAM :

Programming & Development : Alexandra Zaïnal
Concept & Development : Baudouin d'Aumeries
Co-Development & Prog : Marc-Olivier Méhu
Technical & hardware support : Manuel Goepfert

Contact : metmap@orbifly.com




SOURCES & CREDITS :

   NOAA